sensor_id;sensor_type;location;lat;lon;timestamp;P1;durP1;ratioP1;P2;durP2;ratioP2
78794;SDS011;68144;50.892;3.064;2023-12-04T00:00:21;14.60;;;7.50;;
78794;SDS011;68144;50.892;3.064;2023-12-04T00:00:51;14.00;;;6.80;;
78794;SDS011;68144;50.892;3.064;2023-12-04T00:01:22;12.10;;;7.40;;
78794;SDS011;68144;50.892;3.064;2023-12-04T00:01:52;14.10;;;6.90;;
78794;SDS011;68144;50.892;3.064;2023-12-04T00:02:23;14.10;;;7.60;;
78794;SDS011;68144;50.892;3.064;2023-12-04T00:02:54;12.20;;;7.70;;
78794;SDS011;68144;50.892;3.064;2023-12-04T00:03:24;13.70;;;7.60;;
78794;SDS011;68144;50.892;3.064;2023-12-04T00:03:55;14.10;;;7.70;;
78794;SDS011;68144;50.892;3.064;2023-12-04T00:04:25;12.70;;;6.90;;
78794;SDS011;68144;50.892;3.064;2023-12-04T00:04:56;14.10;;;7.60;;
78794;SDS011;68144;50.892;3.064;2023-12-04T00:05:26;14.20;;;7.30;;
78794;SDS011;68144;50.892;3.064;2023-12-04T00:05:57;14.30;;;8.10;;
78794;SDS011;68144;50.892;3.064;2023-12-04T00:06:28;14.10;;;7.70;;
78794;SDS011;68144;50.892;3.064;2023-12-04T00:06:58;14.30;;;7.60;;
78794;SDS011;68144;50.892;3.064;2023-12-04T00:07:29;14.60;;;8.10;;
78794;SDS011;68144;50.892;3.064;2023-12-04T00:07:59;13.40;;;8.20;;
78794;SDS011;68144;50.892;3.064;2023-12-04T00:08:29;12.80;;;7.10;;
78794;SDS011;68144;50.892;3.064;2023-12-04T00:09:00;13.00;;;8.00;;
78794;SDS011;68144;50.892;3.064;2023-12-04T00:09:30;14.60;;;7.70;;
78794;SDS011;68144;50.892;3.064;2023-12-04T00:10:01;15.60;;;7.60;;
78794;SDS011;68144;50.892;3.064;2023-12-04T00:10:31;13.80;;;7.40;;
78794;SDS011;68144;50.892;3.064;2023-12-04T00:11:02;15.30;;;8.60;;
78794;SDS011;68144;50.892;3.064;2023-12-04T00:11:33;16.10;;;8.00;;
78794;SDS011;68144;50.892;3.064;2023-12-04T00:12:04;10.30;;;6.70;;
78794;SDS011;68144;50.892;3.064;2023-12-04T00:12:34;12.50;;;7.40;;
78794;SDS011;68144;50.892;3.064;2023-12-04T00:13:05;13.80;;;7.30;;
78794;SDS011;68144;50.892;3.064;2023-12-04T00:13:35;14.90;;;7.70;;
78794;SDS011;68144;50.892;3.064;2023-12-04T00:14:06;15.20;;;7.00;;
78794;SDS011;68144;50.892;3.064;2023-12-04T00:14:37;13.20;;;6.60;;
78794;SDS011;68144;50.892;3.064;2023-12-04T00:15:07;12.30;;;7.70;;
78794;SDS011;68144;50.892;3.064;2023-12-04T00:15:38;12.70;;;6.80;;
78794;SDS011;68144;50.892;3.064;2023-12-04T00:16:08;14.10;;;7.30;;
78794;SDS011;68144;50.892;3.064;2023-12-04T00:16:39;10.10;;;6.20;;
78794;SDS011;68144;50.892;3.064;2023-12-04T00:17:09;12.30;;;7.40;;
78794;SDS011;68144;50.892;3.064;2023-12-04T00:17:40;12.00;;;6.90;;
78794;SDS011;68144;50.892;3.064;2023-12-04T00:18:11;13.00;;;6.70;;
78794;SDS011;68144;50.892;3.064;2023-12-04T00:18:42;12.60;;;6.90;;
78794;SDS011;68144;50.892;3.064;2023-12-04T00:19:12;13.40;;;7.10;;
78794;SDS011;68144;50.892;3.064;2023-12-04T00:19:43;11.10;;;6.50;;
78794;SDS011;68144;50.892;3.064;2023-12-04T00:20:14;12.90;;;7.40;;
78794;SDS011;68144;50.892;3.064;2023-12-04T00:20:44;11.30;;;7.00;;
78794;SDS011;68144;50.892;3.064;2023-12-04T00:21:15;11.20;;;7.30;;
78794;SDS011;68144;50.892;3.064;2023-12-04T00:21:45;12.10;;;7.20;;
78794;SDS011;68144;50.892;3.064;2023-12-04T00:22:16;12.60;;;6.70;;
78794;SDS011;68144;50.892;3.064;2023-12-04T00:22:47;12.80;;;6.90;;
78794;SDS011;68144;50.892;3.064;2023-12-04T00:23:18;12.40;;;7.00;;
78794;SDS011;68144;50.892;3.064;2023-12-04T00:23:48;13.80;;;7.10;;
78794;SDS011;68144;50.892;3.064;2023-12-04T00:24:19;12.90;;;7.40;;
78794;SDS011;68144;50.892;3.064;2023-12-04T00:24:50;13.70;;;6.70;;
78794;SDS011;68144;50.892;3.064;2023-12-04T00:25:21;12.00;;;7.70;;
78794;SDS011;68144;50.892;3.064;2023-12-04T00:25:53;12.40;;;6.70;;
78794;SDS011;68144;50.892;3.064;2023-12-04T00:26:24;13.50;;;7.50;;
78794;SDS011;68144;50.892;3.064;2023-12-04T00:26:55;18.90;;;8.20;;
78794;SDS011;68144;50.892;3.064;2023-12-04T00:27:25;14.20;;;7.70;;
78794;SDS011;68144;50.892;3.064;2023-12-04T00:27:58;12.60;;;7.60;;
78794;SDS011;68144;50.892;3.064;2023-12-04T00:28:29;12.40;;;7.20;;
78794;SDS011;68144;50.892;3.064;2023-12-04T00:29:00;14.20;;;7.50;;
78794;SDS011;68144;50.892;3.064;2023-12-04T00:29:30;14.80;;;8.60;;
78794;SDS011;68144;50.892;3.064;2023-12-04T00:30:01;12.20;;;7.80;;
78794;SDS011;68144;50.892;3.064;2023-12-04T00:30:34;14.00;;;8.00;;
78794;SDS011;68144;50.892;3.064;2023-12-04T00:31:04;13.60;;;7.90;;
78794;SDS011;68144;50.892;3.064;2023-12-04T00:31:35;15.20;;;8.10;;
78794;SDS011;68144;50.892;3.064;2023-12-04T00:32:05;10.90;;;6.20;;
78794;SDS011;68144;50.892;3.064;2023-12-04T00:32:36;14.00;;;8.00;;
78794;SDS011;68144;50.892;3.064;2023-12-04T00:33:07;13.40;;;7.40;;
78794;SDS011;68144;50.892;3.064;2023-12-04T00:33:37;13.40;;;6.90;;
78794;SDS011;68144;50.892;3.064;2023-12-04T00:34:08;16.20;;;7.90;;
78794;SDS011;68144;50.892;3.064;2023-12-04T00:34:38;13.40;;;7.10;;
78794;SDS011;68144;50.892;3.064;2023-12-04T00:35:09;13.30;;;7.60;;
78794;SDS011;68144;50.892;3.064;2023-12-04T00:35:40;11.40;;;7.30;;
78794;SDS011;68144;50.892;3.064;2023-12-04T00:36:10;12.30;;;8.60;;
78794;SDS011;68144;50.892;3.064;2023-12-04T00:36:41;13.00;;;6.80;;
78794;SDS011;68144;50.892;3.064;2023-12-04T00:37:11;12.30;;;7.60;;
78794;SDS011;68144;50.892;3.064;2023-12-04T00:37:42;10.00;;;6.60;;
78794;SDS011;68144;50.892;3.064;2023-12-04T00:38:12;10.60;;;6.50;;
78794;SDS011;68144;50.892;3.064;2023-12-04T00:38:42;13.00;;;7.20;;
78794;SDS011;68144;50.892;3.064;2023-12-04T00:39:13;13.20;;;7.90;;
78794;SDS011;68144;50.892;3.064;2023-12-04T00:39:43;13.60;;;8.00;;
78794;SDS011;68144;50.892;3.064;2023-12-04T00:40:14;11.80;;;6.90;;
78794;SDS011;68144;50.892;3.064;2023-12-04T00:40:44;13.00;;;7.30;;
78794;SDS011;68144;50.892;3.064;2023-12-04T00:41:15;12.20;;;7.70;;
78794;SDS011;68144;50.892;3.064;2023-12-04T00:41:46;10.80;;;6.60;;
78794;SDS011;68144;50.892;3.064;2023-12-04T00:42:16;13.40;;;7.80;;
78794;SDS011;68144;50.892;3.064;2023-12-04T00:42:47;14.00;;;7.70;;
78794;SDS011;68144;50.892;3.064;2023-12-04T00:43:18;15.10;;;7.70;;
78794;SDS011;68144;50.892;3.064;2023-12-04T00:43:48;12.50;;;8.10;;
78794;SDS011;68144;50.892;3.064;2023-12-04T00:44:19;13.50;;;8.00;;
78794;SDS011;68144;50.892;3.064;2023-12-04T00:44:49;13.70;;;7.90;;
78794;SDS011;68144;50.892;3.064;2023-12-04T00:45:20;11.80;;;7.20;;
78794;SDS011;68144;50.892;3.064;2023-12-04T00:45:50;14.30;;;8.10;;
78794;SDS011;68144;50.892;3.064;2023-12-04T00:46:21;13.00;;;7.40;;
78794;SDS011;68144;50.892;3.064;2023-12-04T00:46:51;14.40;;;8.20;;
78794;SDS011;68144;50.892;3.064;2023-12-04T00:47:22;15.30;;;8.00;;
78794;SDS011;68144;50.892;3.064;2023-12-04T00:47:53;14.80;;;7.80;;
78794;SDS011;68144;50.892;3.064;2023-12-04T00:48:23;12.40;;;6.90;;
78794;SDS011;68144;50.892;3.064;2023-12-04T00:48:54;14.60;;;7.60;;
78794;SDS011;68144;50.892;3.064;2023-12-04T00:49:25;15.20;;;8.50;;
78794;SDS011;68144;50.892;3.064;2023-12-04T00:49:55;10.50;;;7.30;;
78794;SDS011;68144;50.892;3.064;2023-12-04T00:50:26;13.50;;;8.20;;
78794;SDS011;68144;50.892;3.064;2023-12-04T00:50:57;14.50;;;8.20;;
78794;SDS011;68144;50.892;3.064;2023-12-04T00:51:28;12.90;;;7.80;;
78794;SDS011;68144;50.892;3.064;2023-12-04T00:51:58;13.90;;;8.20;;
78794;SDS011;68144;50.892;3.064;2023-12-04T00:52:29;12.90;;;7.70;;
78794;SDS011;68144;50.892;3.064;2023-12-04T00:52:59;12.10;;;7.80;;
78794;SDS011;68144;50.892;3.064;2023-12-04T00:53:30;14.70;;;7.80;;
78794;SDS011;68144;50.892;3.064;2023-12-04T00:54:01;12.90;;;6.80;;
78794;SDS011;68144;50.892;3.064;2023-12-04T00:54:31;14.10;;;8.60;;
78794;SDS011;68144;50.892;3.064;2023-12-04T00:55:02;12.80;;;6.40;;
78794;SDS011;68144;50.892;3.064;2023-12-04T00:55:33;13.10;;;7.40;;
78794;SDS011;68144;50.892;3.064;2023-12-04T00:56:04;11.40;;;6.30;;
78794;SDS011;68144;50.892;3.064;2023-12-04T00:56:37;11.60;;;7.10;;
78794;SDS011;68144;50.892;3.064;2023-12-04T00:57:08;14.20;;;7.00;;
78794;SDS011;68144;50.892;3.064;2023-12-04T00:57:39;11.70;;;7.50;;
78794;SDS011;68144;50.892;3.064;2023-12-04T00:58:09;12.90;;;7.00;;
78794;SDS011;68144;50.892;3.064;2023-12-04T00:58:40;13.20;;;7.90;;
78794;SDS011;68144;50.892;3.064;2023-12-04T00:59:10;14.00;;;7.60;;
78794;SDS011;68144;50.892;3.064;2023-12-04T00:59:41;11.20;;;6.50;;
78794;SDS011;68144;50.892;3.064;2023-12-04T01:00:11;13.00;;;7.70;;
78794;SDS011;68144;50.892;3.064;2023-12-04T01:00:42;10.70;;;7.90;;
78794;SDS011;68144;50.892;3.064;2023-12-04T01:01:13;13.80;;;7.70;;
78794;SDS011;68144;50.892;3.064;2023-12-04T01:01:44;12.60;;;7.60;;
78794;SDS011;68144;50.892;3.064;2023-12-04T01:02:14;14.30;;;9.00;;
78794;SDS011;68144;50.892;3.064;2023-12-04T01:02:45;13.80;;;7.80;;
78794;SDS011;68144;50.892;3.064;2023-12-04T01:03:16;13.00;;;6.90;;
78794;SDS011;68144;50.892;3.064;2023-12-04T01:03:46;14.40;;;7.50;;
78794;SDS011;68144;50.892;3.064;2023-12-04T01:04:17;13.40;;;7.20;;
78794;SDS011;68144;50.892;3.064;2023-12-04T01:04:47;11.80;;;7.40;;
78794;SDS011;68144;50.892;3.064;2023-12-04T01:05:18;12.10;;;7.20;;
78794;SDS011;68144;50.892;3.064;2023-12-04T01:05:48;13.40;;;7.50;;
78794;SDS011;68144;50.892;3.064;2023-12-04T01:06:22;12.40;;;7.50;;
78794;SDS011;68144;50.892;3.064;2023-12-04T01:06:53;12.60;;;7.30;;
78794;SDS011;68144;50.892;3.064;2023-12-04T01:07:23;11.90;;;7.40;;
78794;SDS011;68144;50.892;3.064;2023-12-04T01:07:54;14.50;;;8.50;;
78794;SDS011;68144;50.892;3.064;2023-12-04T01:08:24;12.90;;;8.10;;
78794;SDS011;68144;50.892;3.064;2023-12-04T01:08:55;12.70;;;7.70;;
78794;SDS011;68144;50.892;3.064;2023-12-04T01:09:26;12.90;;;6.70;;
78794;SDS011;68144;50.892;3.064;2023-12-04T01:09:57;15.20;;;9.30;;
78794;SDS011;68144;50.892;3.064;2023-12-04T01:10:27;13.70;;;7.80;;
78794;SDS011;68144;50.892;3.064;2023-12-04T01:10:58;13.00;;;8.00;;
78794;SDS011;68144;50.892;3.064;2023-12-04T01:11:28;13.40;;;7.70;;
78794;SDS011;68144;50.892;3.064;2023-12-04T01:11:59;13.90;;;7.50;;
78794;SDS011;68144;50.892;3.064;2023-12-04T01:12:30;13.80;;;7.40;;
78794;SDS011;68144;50.892;3.064;2023-12-04T01:13:00;12.30;;;6.90;;
78794;SDS011;68144;50.892;3.064;2023-12-04T01:13:31;12.30;;;7.40;;
78794;SDS011;68144;50.892;3.064;2023-12-04T01:14:02;10.90;;;6.20;;
78794;SDS011;68144;50.892;3.064;2023-12-04T01:14:32;12.20;;;5.90;;
78794;SDS011;68144;50.892;3.064;2023-12-04T01:15:03;12.60;;;7.00;;
78794;SDS011;68144;50.892;3.064;2023-12-04T01:15:35;11.90;;;7.90;;
78794;SDS011;68144;50.892;3.064;2023-12-04T01:16:07;10.80;;;6.30;;
78794;SDS011;68144;50.892;3.064;2023-12-04T01:16:38;11.60;;;7.20;;
78794;SDS011;68144;50.892;3.064;2023-12-04T01:17:08;12.10;;;7.60;;
78794;SDS011;68144;50.892;3.064;2023-12-04T01:17:39;11.00;;;6.60;;
78794;SDS011;68144;50.892;3.064;2023-12-04T01:18:09;12.10;;;7.60;;
78794;SDS011;68144;50.892;3.064;2023-12-04T01:18:40;12.30;;;6.90;;
78794;SDS011;68144;50.892;3.064;2023-12-04T01:19:11;12.00;;;7.80;;
78794;SDS011;68144;50.892;3.064;2023-12-04T01:19:42;13.90;;;8.10;;
78794;SDS011;68144;50.892;3.064;2023-12-04T01:20:12;12.10;;;6.80;;
78794;SDS011;68144;50.892;3.064;2023-12-04T01:20:43;12.80;;;7.20;;
78794;SDS011;68144;50.892;3.064;2023-12-04T01:21:13;11.00;;;6.80;;
78794;SDS011;68144;50.892;3.064;2023-12-04T01:21:44;12.70;;;7.50;;
78794;SDS011;68144;50.892;3.064;2023-12-04T01:22:15;13.30;;;8.60;;
78794;SDS011;68144;50.892;3.064;2023-12-04T01:22:45;11.60;;;7.30;;
78794;SDS011;68144;50.892;3.064;2023-12-04T01:23:16;11.80;;;7.30;;
78794;SDS011;68144;50.892;3.064;2023-12-04T01:23:47;11.00;;;6.70;;
78794;SDS011;68144;50.892;3.064;2023-12-04T01:24:17;12.70;;;7.50;;
78794;SDS011;68144;50.892;3.064;2023-12-04T01:24:48;13.00;;;8.10;;
78794;SDS011;68144;50.892;3.064;2023-12-04T01:25:19;13.50;;;7.70;;
78794;SDS011;68144;50.892;3.064;2023-12-04T01:25:50;14.80;;;7.90;;
78794;SDS011;68144;50.892;3.064;2023-12-04T01:26:21;13.10;;;7.50;;
78794;SDS011;68144;50.892;3.064;2023-12-04T01:26:52;11.20;;;6.80;;
78794;SDS011;68144;50.892;3.064;2023-12-04T01:27:22;15.50;;;8.60;;
78794;SDS011;68144;50.892;3.064;2023-12-04T01:27:53;12.70;;;6.90;;
78794;SDS011;68144;50.892;3.064;2023-12-04T01:28:24;14.30;;;8.20;;
78794;SDS011;68144;50.892;3.064;2023-12-04T01:28:54;12.80;;;7.10;;
78794;SDS011;68144;50.892;3.064;2023-12-04T01:29:25;13.40;;;7.30;;
78794;SDS011;68144;50.892;3.064;2023-12-04T01:29:56;11.90;;;6.90;;
78794;SDS011;68144;50.892;3.064;2023-12-04T01:30:26;13.30;;;7.50;;
78794;SDS011;68144;50.892;3.064;2023-12-04T01:30:56;12.80;;;7.00;;
78794;SDS011;68144;50.892;3.064;2023-12-04T01:31:27;14.00;;;8.40;;
78794;SDS011;68144;50.892;3.064;2023-12-04T01:31:57;11.90;;;7.20;;
78794;SDS011;68144;50.892;3.064;2023-12-04T01:32:28;11.60;;;6.70;;
78794;SDS011;68144;50.892;3.064;2023-12-04T01:32:58;13.70;;;6.80;;
78794;SDS011;68144;50.892;3.064;2023-12-04T01:33:30;12.00;;;7.30;;
78794;SDS011;68144;50.892;3.064;2023-12-04T01:34:00;10.70;;;6.50;;
78794;SDS011;68144;50.892;3.064;2023-12-04T01:34:31;13.10;;;7.20;;
78794;SDS011;68144;50.892;3.064;2023-12-04T01:35:02;10.40;;;6.30;;
78794;SDS011;68144;50.892;3.064;2023-12-04T01:35:32;11.80;;;6.80;;
78794;SDS011;68144;50.892;3.064;2023-12-04T01:36:03;10.50;;;7.10;;
78794;SDS011;68144;50.892;3.064;2023-12-04T01:36:34;12.00;;;7.40;;
78794;SDS011;68144;50.892;3.064;2023-12-04T01:37:05;16.50;;;8.60;;
78794;SDS011;68144;50.892;3.064;2023-12-04T01:37:36;10.00;;;6.50;;
78794;SDS011;68144;50.892;3.064;2023-12-04T01:38:38;10.20;;;6.50;;
78794;SDS011;68144;50.892;3.064;2023-12-04T01:39:09;12.70;;;6.30;;
78794;SDS011;68144;50.892;3.064;2023-12-04T01:39:39;11.80;;;6.40;;
78794;SDS011;68144;50.892;3.064;2023-12-04T01:40:10;10.10;;;6.10;;
78794;SDS011;68144;50.892;3.064;2023-12-04T01:40:40;9.80;;;5.80;;
78794;SDS011;68144;50.892;3.064;2023-12-04T01:41:11;12.80;;;7.40;;
78794;SDS011;68144;50.892;3.064;2023-12-04T01:41:41;13.70;;;7.90;;
78794;SDS011;68144;50.892;3.064;2023-12-04T01:42:12;11.60;;;6.70;;
78794;SDS011;68144;50.892;3.064;2023-12-04T01:42:43;12.20;;;6.50;;
78794;SDS011;68144;50.892;3.064;2023-12-04T01:43:13;11.50;;;6.80;;
78794;SDS011;68144;50.892;3.064;2023-12-04T01:43:45;9.90;;;7.00;;
78794;SDS011;68144;50.892;3.064;2023-12-04T01:44:15;13.70;;;7.30;;
78794;SDS011;68144;50.892;3.064;2023-12-04T01:44:46;12.70;;;7.60;;
78794;SDS011;68144;50.892;3.064;2023-12-04T01:45:16;11.80;;;7.00;;
78794;SDS011;68144;50.892;3.064;2023-12-04T01:45:47;13.70;;;7.00;;
78794;SDS011;68144;50.892;3.064;2023-12-04T01:46:17;11.70;;;7.30;;
78794;SDS011;68144;50.892;3.064;2023-12-04T01:46:48;10.90;;;6.30;;
78794;SDS011;68144;50.892;3.064;2023-12-04T01:47:18;12.60;;;7.40;;
78794;SDS011;68144;50.892;3.064;2023-12-04T01:47:50;12.10;;;7.30;;
78794;SDS011;68144;50.892;3.064;2023-12-04T01:48:20;11.20;;;6.80;;
78794;SDS011;68144;50.892;3.064;2023-12-04T01:48:51;11.80;;;7.60;;
78794;SDS011;68144;50.892;3.064;2023-12-04T01:49:23;12.40;;;7.60;;
78794;SDS011;68144;50.892;3.064;2023-12-04T01:49:54;10.20;;;6.60;;
78794;SDS011;68144;50.892;3.064;2023-12-04T01:50:25;13.30;;;7.10;;
78794;SDS011;68144;50.892;3.064;2023-12-04T01:50:55;11.00;;;6.80;;
78794;SDS011;68144;50.892;3.064;2023-12-04T01:51:28;11.20;;;6.60;;
78794;SDS011;68144;50.892;3.064;2023-12-04T01:51:58;13.20;;;7.20;;
78794;SDS011;68144;50.892;3.064;2023-12-04T01:52:29;13.00;;;7.50;;
78794;SDS011;68144;50.892;3.064;2023-12-04T01:52:59;12.00;;;6.50;;
78794;SDS011;68144;50.892;3.064;2023-12-04T01:53:30;14.00;;;7.50;;
78794;SDS011;68144;50.892;3.064;2023-12-04T01:54:00;12.20;;;6.70;;
78794;SDS011;68144;50.892;3.064;2023-12-04T01:54:34;12.20;;;6.90;;
78794;SDS011;68144;50.892;3.064;2023-12-04T01:55:05;10.90;;;6.50;;
78794;SDS011;68144;50.892;3.064;2023-12-04T01:55:37;9.90;;;6.00;;
78794;SDS011;68144;50.892;3.064;2023-12-04T01:56:08;14.00;;;6.50;;
78794;SDS011;68144;50.892;3.064;2023-12-04T01:56:39;13.20;;;6.80;;
78794;SDS011;68144;50.892;3.064;2023-12-04T01:57:10;11.20;;;6.80;;
78794;SDS011;68144;50.892;3.064;2023-12-04T01:57:41;10.60;;;6.60;;
78794;SDS011;68144;50.892;3.064;2023-12-04T01:58:11;12.60;;;7.50;;
78794;SDS011;68144;50.892;3.064;2023-12-04T01:58:42;13.10;;;6.80;;
78794;SDS011;68144;50.892;3.064;2023-12-04T01:59:13;10.90;;;6.40;;
78794;SDS011;68144;50.892;3.064;2023-12-04T01:59:43;11.10;;;6.90;;
78794;SDS011;68144;50.892;3.064;2023-12-04T02:00:15;12.00;;;6.80;;
78794;SDS011;68144;50.892;3.064;2023-12-04T02:00:46;12.20;;;6.50;;
78794;SDS011;68144;50.892;3.064;2023-12-04T02:01:17;12.70;;;5.60;;
78794;SDS011;68144;50.892;3.064;2023-12-04T02:01:48;12.90;;;6.70;;
78794;SDS011;68144;50.892;3.064;2023-12-04T02:02:19;12.10;;;7.10;;
78794;SDS011;68144;50.892;3.064;2023-12-04T02:02:50;12.20;;;7.70;;
78794;SDS011;68144;50.892;3.064;2023-12-04T02:03:21;12.10;;;6.50;;
78794;SDS011;68144;50.892;3.064;2023-12-04T02:03:51;12.10;;;6.80;;
78794;SDS011;68144;50.892;3.064;2023-12-04T02:04:22;12.70;;;7.00;;
78794;SDS011;68144;50.892;3.064;2023-12-04T02:04:54;12.70;;;7.00;;
78794;SDS011;68144;50.892;3.064;2023-12-04T02:05:26;11.50;;;6.80;;
78794;SDS011;68144;50.892;3.064;2023-12-04T02:05:59;13.10;;;7.60;;
78794;SDS011;68144;50.892;3.064;2023-12-04T02:06:30;12.30;;;6.60;;
78794;SDS011;68144;50.892;3.064;2023-12-04T02:07:00;14.00;;;7.10;;
78794;SDS011;68144;50.892;3.064;2023-12-04T02:07:31;12.60;;;7.00;;
78794;SDS011;68144;50.892;3.064;2023-12-04T02:08:02;12.90;;;7.00;;
78794;SDS011;68144;50.892;3.064;2023-12-04T02:08:33;13.60;;;8.00;;
78794;SDS011;68144;50.892;3.064;2023-12-04T02:09:03;12.40;;;7.10;;
78794;SDS011;68144;50.892;3.064;2023-12-04T02:09:37;12.30;;;7.20;;
78794;SDS011;68144;50.892;3.064;2023-12-04T02:10:08;13.10;;;7.40;;
78794;SDS011;68144;50.892;3.064;2023-12-04T02:10:39;11.50;;;6.60;;
78794;SDS011;68144;50.892;3.064;2023-12-04T02:11:09;11.10;;;6.70;;
78794;SDS011;68144;50.892;3.064;2023-12-04T02:11:40;11.40;;;7.40;;
78794;SDS011;68144;50.892;3.064;2023-12-04T02:12:10;12.20;;;6.80;;
78794;SDS011;68144;50.892;3.064;2023-12-04T18:34:57;14.50;;;9.10;;
78794;SDS011;68144;50.892;3.064;2023-12-04T18:35:28;13.50;;;10.10;;
78794;SDS011;68144;50.892;3.064;2023-12-04T18:36:00;12.30;;;8.80;;
78794;SDS011;68144;50.892;3.064;2023-12-04T18:36:33;13.30;;;9.10;;
78794;SDS011;68144;50.892;3.064;2023-12-04T18:37:07;11.30;;;8.50;;
78794;SDS011;68144;50.892;3.064;2023-12-04T18:37:45;11.70;;;9.00;;
78794;SDS011;68144;50.892;3.064;2023-12-04T18:39:18;12.90;;;8.40;;
78794;SDS011;68144;50.892;3.064;2023-12-04T18:39:51;10.20;;;8.90;;
78794;SDS011;68144;50.892;3.064;2023-12-04T18:40:23;14.20;;;9.50;;
78794;SDS011;68144;50.892;3.064;2023-12-04T18:40:54;11.00;;;9.30;;
78794;SDS011;68144;50.892;3.064;2023-12-04T18:41:25;16.60;;;10.30;;
78794;SDS011;68144;50.892;3.064;2023-12-04T18:41:56;13.20;;;9.50;;
78794;SDS011;68144;50.892;3.064;2023-12-04T18:42:27;13.00;;;10.20;;
78794;SDS011;68144;50.892;3.064;2023-12-04T18:42:58;12.90;;;9.50;;
78794;SDS011;68144;50.892;3.064;2023-12-04T18:43:31;11.80;;;9.50;;
78794;SDS011;68144;50.892;3.064;2023-12-04T18:44:11;13.40;;;9.20;;
78794;SDS011;68144;50.892;3.064;2023-12-04T18:44:41;13.60;;;9.60;;
78794;SDS011;68144;50.892;3.064;2023-12-04T18:45:13;14.00;;;10.00;;
78794;SDS011;68144;50.892;3.064;2023-12-04T18:45:44;11.30;;;8.80;;
78794;SDS011;68144;50.892;3.064;2023-12-04T18:46:15;12.20;;;9.20;;
78794;SDS011;68144;50.892;3.064;2023-12-04T18:46:46;11.20;;;8.90;;
78794;SDS011;68144;50.892;3.064;2023-12-04T18:47:17;10.50;;;8.90;;
78794;SDS011;68144;50.892;3.064;2023-12-04T18:47:55;11.00;;;8.30;;
78794;SDS011;68144;50.892;3.064;2023-12-04T18:48:30;10.30;;;8.70;;
78794;SDS011;68144;50.892;3.064;2023-12-04T18:49:05;11.40;;;8.40;;
78794;SDS011;68144;50.892;3.064;2023-12-04T18:49:40;12.20;;;9.60;;
78794;SDS011;68144;50.892;3.064;2023-12-04T18:50:11;9.60;;;8.30;;
78794;SDS011;68144;50.892;3.064;2023-12-04T18:50:42;12.90;;;9.00;;
78794;SDS011;68144;50.892;3.064;2023-12-04T18:51:13;10.00;;;8.90;;
78794;SDS011;68144;50.892;3.064;2023-12-04T18:51:48;11.70;;;9.10;;
78794;SDS011;68144;50.892;3.064;2023-12-04T18:52:18;12.80;;;9.10;;
78794;SDS011;68144;50.892;3.064;2023-12-04T18:52:49;12.00;;;10.80;;
78794;SDS011;68144;50.892;3.064;2023-12-04T18:53:20;15.10;;;9.20;;
78794;SDS011;68144;50.892;3.064;2023-12-04T18:53:50;13.30;;;9.30;;
78794;SDS011;68144;50.892;3.064;2023-12-04T18:54:21;12.50;;;9.00;;
78794;SDS011;68144;50.892;3.064;2023-12-04T18:54:51;12.40;;;9.50;;
78794;SDS011;68144;50.892;3.064;2023-12-04T18:55:22;11.30;;;9.00;;
78794;SDS011;68144;50.892;3.064;2023-12-04T18:55:53;11.90;;;9.20;;
78794;SDS011;68144;50.892;3.064;2023-12-04T18:56:23;11.10;;;9.10;;
78794;SDS011;68144;50.892;3.064;2023-12-04T18:56:55;10.40;;;9.20;;
78794;SDS011;68144;50.892;3.064;2023-12-04T18:57:25;11.50;;;8.20;;
78794;SDS011;68144;50.892;3.064;2023-12-04T18:57:56;11.60;;;8.90;;
78794;SDS011;68144;50.892;3.064;2023-12-04T18:58:26;10.60;;;8.80;;
78794;SDS011;68144;50.892;3.064;2023-12-04T18:59:00;13.90;;;12.40;;
78794;SDS011;68144;50.892;3.064;2023-12-04T18:59:31;11.50;;;9.10;;
78794;SDS011;68144;50.892;3.064;2023-12-04T19:00:02;10.80;;;8.50;;
78794;SDS011;68144;50.892;3.064;2023-12-04T19:00:34;10.30;;;8.80;;
78794;SDS011;68144;50.892;3.064;2023-12-04T19:01:08;11.80;;;8.70;;
78794;SDS011;68144;50.892;3.064;2023-12-04T19:01:38;11.50;;;8.80;;
78794;SDS011;68144;50.892;3.064;2023-12-04T19:02:09;13.10;;;8.90;;
78794;SDS011;68144;50.892;3.064;2023-12-04T19:02:39;11.90;;;9.40;;
78794;SDS011;68144;50.892;3.064;2023-12-04T19:03:10;13.20;;;9.30;;
78794;SDS011;68144;50.892;3.064;2023-12-04T19:03:40;12.30;;;9.30;;
78794;SDS011;68144;50.892;3.064;2023-12-04T19:04:11;11.70;;;9.30;;
78794;SDS011;68144;50.892;3.064;2023-12-04T19:04:43;12.80;;;9.00;;
78794;SDS011;68144;50.892;3.064;2023-12-04T19:05:13;15.50;;;9.90;;
78794;SDS011;68144;50.892;3.064;2023-12-04T19:05:44;13.30;;;9.00;;
78794;SDS011;68144;50.892;3.064;2023-12-04T19:06:15;12.20;;;9.20;;
78794;SDS011;68144;50.892;3.064;2023-12-04T19:06:46;10.30;;;8.10;;
78794;SDS011;68144;50.892;3.064;2023-12-04T19:07:16;11.60;;;9.60;;
78794;SDS011;68144;50.892;3.064;2023-12-04T19:07:47;12.40;;;9.00;;
78794;SDS011;68144;50.892;3.064;2023-12-04T19:08:17;12.40;;;8.60;;
78794;SDS011;68144;50.892;3.064;2023-12-04T19:08:48;9.70;;;8.30;;
78794;SDS011;68144;50.892;3.064;2023-12-04T19:09:18;10.40;;;8.70;;
78794;SDS011;68144;50.892;3.064;2023-12-04T19:09:49;13.70;;;9.90;;
78794;SDS011;68144;50.892;3.064;2023-12-04T19:10:20;10.50;;;8.40;;
78794;SDS011;68144;50.892;3.064;2023-12-04T19:10:50;12.20;;;9.80;;
78794;SDS011;68144;50.892;3.064;2023-12-04T19:11:21;10.80;;;8.90;;
78794;SDS011;68144;50.892;3.064;2023-12-04T19:11:54;15.60;;;9.80;;
78794;SDS011;68144;50.892;3.064;2023-12-04T19:12:25;12.10;;;9.50;;
78794;SDS011;68144;50.892;3.064;2023-12-04T19:12:56;11.00;;;9.10;;
78794;SDS011;68144;50.892;3.064;2023-12-04T19:13:27;12.30;;;9.90;;
78794;SDS011;68144;50.892;3.064;2023-12-04T19:13:57;12.20;;;9.60;;
78794;SDS011;68144;50.892;3.064;2023-12-04T19:14:29;14.10;;;10.60;;
78794;SDS011;68144;50.892;3.064;2023-12-04T19:15:00;13.60;;;10.30;;
78794;SDS011;68144;50.892;3.064;2023-12-04T19:15:30;12.20;;;10.20;;
78794;SDS011;68144;50.892;3.064;2023-12-04T19:16:03;13.30;;;9.50;;
78794;SDS011;68144;50.892;3.064;2023-12-04T19:16:34;15.50;;;9.30;;
78794;SDS011;68144;50.892;3.064;2023-12-04T19:17:05;11.50;;;9.10;;
78794;SDS011;68144;50.892;3.064;2023-12-04T19:17:35;9.60;;;8.40;;
78794;SDS011;68144;50.892;3.064;2023-12-04T19:18:06;12.80;;;9.80;;
78794;SDS011;68144;50.892;3.064;2023-12-04T19:18:37;14.10;;;9.20;;
78794;SDS011;68144;50.892;3.064;2023-12-04T19:19:08;11.00;;;8.80;;
78794;SDS011;68144;50.892;3.064;2023-12-04T19:19:38;11.40;;;8.90;;
78794;SDS011;68144;50.892;3.064;2023-12-04T19:20:09;10.80;;;8.90;;
78794;SDS011;68144;50.892;3.064;2023-12-04T19:20:40;10.40;;;8.50;;
78794;SDS011;68144;50.892;3.064;2023-12-04T19:21:10;11.00;;;9.20;;
78794;SDS011;68144;50.892;3.064;2023-12-04T19:21:41;9.90;;;8.50;;
78794;SDS011;68144;50.892;3.064;2023-12-04T19:22:12;13.30;;;9.30;;
78794;SDS011;68144;50.892;3.064;2023-12-04T19:22:43;12.20;;;10.00;;
78794;SDS011;68144;50.892;3.064;2023-12-04T19:23:13;9.80;;;8.70;;
78794;SDS011;68144;50.892;3.064;2023-12-04T19:23:44;13.00;;;9.50;;
78794;SDS011;68144;50.892;3.064;2023-12-04T19:24:15;13.40;;;10.10;;
78794;SDS011;68144;50.892;3.064;2023-12-04T19:24:46;12.00;;;9.30;;
78794;SDS011;68144;50.892;3.064;2023-12-04T19:25:19;12.90;;;9.30;;
78794;SDS011;68144;50.892;3.064;2023-12-04T19:25:50;11.00;;;9.50;;
78794;SDS011;68144;50.892;3.064;2023-12-04T19:26:21;13.60;;;10.60;;
78794;SDS011;68144;50.892;3.064;2023-12-04T19:26:51;13.50;;;10.10;;
78794;SDS011;68144;50.892;3.064;2023-12-04T19:27:22;13.20;;;10.30;;